createdAt,value
2023-04-12T00:01:12.397Z,75.50
2023-04-12T00:03:39.814Z,79.20
2023-04-12T00:06:07.471Z,87.20
2023-04-12T00:08:35.197Z,88.40
2023-04-12T00:11:03.541Z,85.90
2023-04-12T00:13:31.122Z,81.50
2023-04-12T00:15:59.347Z,74.60
2023-04-12T00:18:27.349Z,70.80
2023-04-12T00:20:55.732Z,64.40
2023-04-12T00:23:23.016Z,62.20
2023-04-12T00:25:50.660Z,59.10
2023-04-12T00:28:18.102Z,61.60
2023-04-12T00:30:46.011Z,66.60
2023-04-12T00:33:15.699Z,69.20
2023-04-12T00:35:42.898Z,65.00
2023-04-12T00:38:10.941Z,70.50
2023-04-12T00:40:42.856Z,77.00
2023-04-12T00:43:15.372Z,76.20
2023-04-12T00:45:42.746Z,74.90
2023-04-12T00:48:11.008Z,79.00
2023-04-12T00:50:38.248Z,81.30
2023-04-12T00:53:05.557Z,87.30
2023-04-12T00:55:32.728Z,91.60
2023-04-12T00:58:00.039Z,94.30
2023-04-12T01:00:27.407Z,96.00
2023-04-12T01:02:54.939Z,95.90
2023-04-12T01:05:23.919Z,95.20
2023-04-12T01:08:18.593Z,95.50
2023-04-12T01:11:01.129Z,98.80
2023-04-12T01:14:06.588Z,98.50
2023-04-12T01:16:44.509Z,97.10
2023-04-12T01:19:19.856Z,96.60
2023-04-12T01:22:05.285Z,95.20
2023-04-12T01:24:32.684Z,94.10
2023-04-12T01:27:03.224Z,94.40
2023-04-12T01:29:31.343Z,92.60
2023-04-12T01:32:01.718Z,91.80
2023-04-12T01:34:32.289Z,92.20
2023-04-12T01:37:02.374Z,92.20
2023-04-12T01:39:31.083Z,91.30
2023-04-12T01:42:00.385Z,87.80
2023-04-12T01:44:29.044Z,78.70
2023-04-12T01:46:57.091Z,66.70
2023-04-12T01:49:36.140Z,62.50
2023-04-12T01:52:12.501Z,58.30
2023-04-12T01:54:42.911Z,53.20
2023-04-12T01:57:10.919Z,63.90
2023-04-12T01:59:43.666Z,68.00
2023-04-12T02:02:12.077Z,58.10
2023-04-12T02:04:41.589Z,54.50
2023-04-12T02:07:09.500Z,59.30
2023-04-12T02:09:38.540Z,60.50
2023-04-12T02:12:09.212Z,52.30
2023-04-12T02:14:36.888Z,47.80
2023-04-12T02:17:05.532Z,40.20
2023-04-12T02:19:33.385Z,35.20
2023-04-12T02:22:01.103Z,31.90
2023-04-12T02:24:29.943Z,38.90
2023-04-12T02:26:59.068Z,40.50
2023-04-12T02:29:27.446Z,43.70
2023-04-12T02:31:54.601Z,45.00
2023-04-12T02:34:24.716Z,38.00
2023-04-12T02:36:59.771Z,28.00
2023-04-12T02:39:29.221Z,25.40
2023-04-12T02:41:57.043Z,17.80
2023-04-12T02:44:25.151Z,10.60
2023-04-12T02:47:08.568Z,7.10
2023-04-12T02:49:36.870Z,14.10
2023-04-12T02:52:05.214Z,22.90
2023-04-12T02:54:41.218Z,33.30
2023-04-12T02:57:16.192Z,43.60
2023-04-12T02:59:46.646Z,47.60
2023-04-12T03:02:23.341Z,54.90
2023-04-12T03:04:53.410Z,58.60
2023-04-12T03:07:25.204Z,64.80
2023-04-12T03:09:54.232Z,64.50
2023-04-12T03:12:23.276Z,64.30
2023-04-12T03:15:11.140Z,64.40
2023-04-12T03:17:38.768Z,59.50
2023-04-12T03:20:09.654Z,47.30
2023-04-12T03:22:39.354Z,43.70
2023-04-12T03:25:10.251Z,36.80
2023-04-12T03:27:42.266Z,27.90
2023-04-12T03:30:13.847Z,25.30
2023-04-12T03:32:44.322Z,24.50
2023-04-12T03:35:12.076Z,24.00
2023-04-12T03:37:44.880Z,24.90
2023-04-12T03:40:13.316Z,21.70
2023-04-12T03:42:45.210Z,14.80
2023-04-12T03:45:14.732Z,24.80
2023-04-12T03:47:46.294Z,25.60
2023-04-12T03:50:15.331Z,18.90
2023-04-12T03:52:48.340Z,7.00
2023-04-12T03:55:18.209Z,8.00
2023-04-12T03:57:46.868Z,9.00
2023-04-12T04:00:15.000Z,14.40
2023-04-12T04:03:05.610Z,17.80
2023-04-12T04:05:40.829Z,8.00
2023-04-12T04:08:08.916Z,10.40
2023-04-12T04:10:57.770Z,1.90
2023-04-12T04:13:30.289Z,1.00
2023-04-12T04:16:07.097Z,1.00
2023-04-12T04:18:35.980Z,1.00
2023-04-12T04:21:07.476Z,1.00
2023-04-12T04:23:38.403Z,1.00
2023-04-12T04:26:10.219Z,1.00
2023-04-12T04:28:45.048Z,1.00
2023-04-12T04:31:17.521Z,1.00
2023-04-12T04:33:49.477Z,1.00
2023-04-12T04:36:18.333Z,1.00
2023-04-12T04:38:51.086Z,1.00
2023-04-12T04:41:34.693Z,1.00
2023-04-12T04:44:04.651Z,1.00
2023-04-12T04:46:37.970Z,1.00
2023-04-12T04:49:08.181Z,1.00
2023-04-12T04:51:36.720Z,1.00
2023-04-12T04:54:04.961Z,1.00
2023-04-12T04:56:34.013Z,1.00
2023-04-12T04:59:02.604Z,1.00
2023-04-12T05:01:32.235Z,1.00
2023-04-12T05:04:02.923Z,1.00
2023-04-12T05:06:31.251Z,1.00
2023-04-12T05:09:01.589Z,1.00
2023-04-12T05:11:31.671Z,99.90
2023-04-12T05:13:58.943Z,99.90
2023-04-12T05:16:26.338Z,99.90
2023-04-12T05:18:53.427Z,99.90
2023-04-12T05:21:22.129Z,99.90
2023-04-12T05:23:50.797Z,99.90
2023-04-12T05:26:18.700Z,99.90
2023-04-12T05:28:49.517Z,99.90
2023-04-12T05:31:20.157Z,99.90
2023-04-12T05:33:50.474Z,99.90
2023-04-12T05:36:19.614Z,99.90
2023-04-12T05:38:46.939Z,99.90
2023-04-12T05:41:14.317Z,99.90
2023-04-12T05:43:41.720Z,99.90
2023-04-12T05:46:11.392Z,82.40
2023-04-12T05:48:39.329Z,1.00
2023-04-12T05:51:06.898Z,18.00
2023-04-12T05:53:34.427Z,99.90
2023-04-12T05:56:04.779Z,99.90
2023-04-12T05:58:33.192Z,99.90
2023-04-12T06:01:00.920Z,99.90
2023-04-12T06:03:30.705Z,99.90
2023-04-12T06:06:02.594Z,99.90
2023-04-12T06:08:30.222Z,94.90
2023-04-12T06:10:58.034Z,99.90
2023-04-12T06:13:29.994Z,99.90
2023-04-12T06:15:57.727Z,99.90
2023-04-12T06:18:25.255Z,99.90
2023-04-12T06:20:52.600Z,99.90
2023-04-12T06:23:19.930Z,99.90
2023-04-12T06:25:49.121Z,99.90
2023-04-12T06:28:16.828Z,99.90
2023-04-12T06:30:47.476Z,99.90
2023-04-12T06:33:14.555Z,9.70
2023-04-12T06:35:42.672Z,99.90
2023-04-12T06:38:09.724Z,40.20
2023-04-12T06:40:37.101Z,99.90
2023-04-12T06:43:04.077Z,99.90
2023-04-12T06:45:32.829Z,99.90
2023-04-12T06:48:00.041Z,99.90
2023-04-12T06:50:27.420Z,99.90
2023-04-12T06:52:54.431Z,1.00
2023-04-12T06:55:21.740Z,99.90
2023-04-12T06:57:51.994Z,99.90
2023-04-12T07:00:19.852Z,37.90
2023-04-12T07:02:47.251Z,99.90
2023-04-12T07:05:14.885Z,99.90
2023-04-12T07:07:42.037Z,99.90
2023-04-12T07:10:09.558Z,99.90
2023-04-12T07:12:36.495Z,99.90
2023-04-12T07:15:04.145Z,1.00
2023-04-12T07:17:31.211Z,99.90
2023-04-12T07:19:58.794Z,40.80
2023-04-12T07:22:25.882Z,1.00
2023-04-12T07:24:53.350Z,1.00
2023-04-12T07:27:20.414Z,21.60
2023-04-12T07:29:47.692Z,8.20
2023-04-12T07:32:14.728Z,92.60
2023-04-12T07:34:42.006Z,99.90
2023-04-12T07:37:09.005Z,99.90
2023-04-12T07:39:37.478Z,99.90
2023-04-12T07:42:04.632Z,99.90
2023-04-12T07:44:36.462Z,99.90
2023-04-12T07:47:05.255Z,99.90
2023-04-12T07:49:32.596Z,99.90
2023-04-12T07:51:59.760Z,99.90
2023-04-12T07:54:28.214Z,99.90
2023-04-12T07:57:00.654Z,99.90
2023-04-12T07:59:28.018Z,1.00
2023-04-12T08:01:55.056Z,99.90
2023-04-12T08:04:22.577Z,1.00
2023-04-12T08:06:49.979Z,99.90
2023-04-12T08:09:17.492Z,99.90
2023-04-12T08:11:44.423Z,99.90
2023-04-12T08:14:11.763Z,99.90
2023-04-12T08:16:38.932Z,99.90
2023-04-12T08:19:06.268Z,99.90
2023-04-12T08:21:33.801Z,63.50
2023-04-12T08:24:13.546Z,99.90
2023-04-12T08:26:48.863Z,99.90
2023-04-12T08:29:16.136Z,99.90
2023-04-12T08:31:43.390Z,99.90
2023-04-12T08:34:11.092Z,99.90
2023-04-12T08:36:38.137Z,17.80
2023-04-12T08:39:05.684Z,1.00
2023-04-12T08:41:36.546Z,10.30
2023-04-12T08:44:05.701Z,99.90
2023-04-12T08:46:37.010Z,99.90
2023-04-12T08:49:04.456Z,99.90
2023-04-12T08:51:33.808Z,99.90
2023-04-12T08:54:01.121Z,99.90
2023-04-12T08:56:29.918Z,99.90
2023-04-12T08:58:58.129Z,99.90
2023-04-12T09:01:26.841Z,24.40
2023-04-12T09:03:54.492Z,51.90
2023-04-12T09:06:21.727Z,18.50
2023-04-12T09:08:56.764Z,1.00
2023-04-12T09:11:28.322Z,1.00
2023-04-12T09:13:57.670Z,1.00
2023-04-12T09:16:45.883Z,1.00
2023-04-12T09:19:13.420Z,1.00
2023-04-12T09:21:56.407Z,99.90
2023-04-12T09:24:26.590Z,99.90
2023-04-12T09:27:07.308Z,99.90
2023-04-12T09:29:36.061Z,99.90
2023-04-12T09:32:07.629Z,99.90
2023-04-12T09:34:37.255Z,99.90
2023-04-12T09:37:17.490Z,99.90
2023-04-12T09:39:46.125Z,99.90
2023-04-12T09:42:32.380Z,99.90
2023-04-12T09:45:26.707Z,99.90
2023-04-12T09:47:56.468Z,99.90
2023-04-12T09:50:30.950Z,99.90
2023-04-12T09:53:14.225Z,99.90
2023-04-12T09:55:42.946Z,99.90
2023-04-12T09:58:14.346Z,99.90
2023-04-12T10:00:42.868Z,99.90
2023-04-12T10:03:10.986Z,99.90
2023-04-12T10:05:41.417Z,99.90
2023-04-12T10:08:14.554Z,99.90
2023-04-12T10:10:46.236Z,99.90
2023-04-12T10:13:15.244Z,99.90
2023-04-12T10:15:46.106Z,99.90
2023-04-12T10:18:16.013Z,99.90
2023-04-12T10:20:48.048Z,99.90
2023-04-12T10:23:18.929Z,99.90
2023-04-12T10:25:49.124Z,99.90
2023-04-12T10:28:21.793Z,99.90
2023-04-12T10:30:52.250Z,99.90
2023-04-12T10:33:25.687Z,99.90
2023-04-12T10:36:03.859Z,99.90
2023-04-12T10:38:44.691Z,99.90
2023-04-12T10:41:22.215Z,99.90
2023-04-12T10:43:53.140Z,99.90
2023-04-12T10:46:44.240Z,99.90
2023-04-12T10:49:18.162Z,99.90
2023-04-12T10:52:05.088Z,99.90
2023-04-12T10:54:35.659Z,99.90
2023-04-12T10:57:10.164Z,99.90
2023-04-12T10:59:59.730Z,99.90
2023-04-12T11:02:27.822Z,99.90
2023-04-12T11:05:09.883Z,99.90
2023-04-12T11:07:53.947Z,99.90
2023-04-12T11:10:40.612Z,99.90
2023-04-12T11:13:16.104Z,99.90
2023-04-12T11:15:44.087Z,99.90
2023-04-12T11:18:13.143Z,99.90
2023-04-12T11:20:41.105Z,99.90
2023-04-12T11:23:11.245Z,99.90
2023-04-12T11:25:38.958Z,99.90
2023-04-12T11:28:21.239Z,99.90
2023-04-12T11:30:58.329Z,99.90
2023-04-12T11:33:32.317Z,99.90
2023-04-12T11:36:02.950Z,99.90
2023-04-12T11:38:30.654Z,99.90
2023-04-12T11:40:57.921Z,99.90
2023-04-12T11:43:25.763Z,99.90
2023-04-12T11:46:16.569Z,99.90
2023-04-12T11:48:46.895Z,99.90
2023-04-12T11:51:31.655Z,99.90
2023-04-12T11:54:01.240Z,99.90
2023-04-12T11:56:32.685Z,99.90
2023-04-12T11:59:00.535Z,99.90
2023-04-12T12:01:47.284Z,99.90
2023-04-12T12:04:18.781Z,99.90
2023-04-12T12:06:48.455Z,99.90
2023-04-12T12:09:16.985Z,99.90
2023-04-12T12:11:45.208Z,99.90
2023-04-12T12:14:22.303Z,99.90
2023-04-12T12:17:00.156Z,99.90
2023-04-12T12:19:32.763Z,99.90
2023-04-12T12:22:10.251Z,99.90
2023-04-12T12:24:45.575Z,99.90
2023-04-12T12:27:13.483Z,99.90
2023-04-12T12:29:41.648Z,99.90
2023-04-12T12:32:13.871Z,99.90
2023-04-12T12:34:56.258Z,99.90
2023-04-12T12:37:25.616Z,99.90
2023-04-12T12:40:16.886Z,99.90
2023-04-12T12:42:46.402Z,99.90
2023-04-12T12:45:15.453Z,99.90
2023-04-12T12:48:03.841Z,99.90
2023-04-12T12:50:34.062Z,99.90
2023-04-12T12:53:02.671Z,99.90
2023-04-12T12:55:31.535Z,99.90
2023-04-12T13:00:31.883Z,99.90
2023-04-12T13:02:59.807Z,99.90
2023-04-12T13:05:27.843Z,99.90
2023-04-12T13:07:55.120Z,99.90
2023-04-12T13:10:23.571Z,99.90
2023-04-12T13:12:50.852Z,99.90
2023-04-12T13:15:23.698Z,99.90
2023-04-12T13:17:53.091Z,99.90
2023-04-12T13:20:24.353Z,99.90
2023-04-12T13:22:54.855Z,99.90
2023-04-12T13:25:22.406Z,99.90
2023-04-12T13:27:50.978Z,99.90
2023-04-12T13:30:19.691Z,99.90
2023-04-12T13:32:47.147Z,99.90
2023-04-12T13:35:14.946Z,99.90
2023-04-12T13:37:42.216Z,99.90
2023-04-12T13:40:10.401Z,99.90
2023-04-12T13:42:37.726Z,99.90
2023-04-12T13:45:07.120Z,99.90
2023-04-12T13:47:35.542Z,99.90
2023-04-12T13:50:03.298Z,99.90
2023-04-12T13:52:33.115Z,99.90
2023-04-12T13:55:00.741Z,99.90
2023-04-12T13:57:28.031Z,99.90
2023-04-12T13:59:55.668Z,99.90
2023-04-12T14:02:23.052Z,99.90
2023-04-12T14:04:52.831Z,99.90
2023-04-12T14:07:21.358Z,99.90
2023-04-12T14:09:49.070Z,99.90
2023-04-12T14:12:16.462Z,99.90
2023-04-12T14:14:44.046Z,99.90
2023-04-12T14:17:11.556Z,99.90
2023-04-12T14:19:39.292Z,99.90
2023-04-12T14:22:06.625Z,99.90
2023-04-12T14:24:34.071Z,99.90
2023-04-12T14:27:02.470Z,99.90
2023-04-12T14:29:30.147Z,99.90
2023-04-12T14:31:59.860Z,99.90
2023-04-12T14:34:31.070Z,99.90
2023-04-12T14:37:00.569Z,99.90
2023-04-12T14:39:28.331Z,99.90
2023-04-12T14:41:57.015Z,99.90
2023-04-12T14:44:26.252Z,99.90
2023-04-12T14:46:54.038Z,99.90
2023-04-12T14:49:21.590Z,99.90
2023-04-12T14:51:48.908Z,99.90
2023-04-12T14:54:19.383Z,99.90
2023-04-12T14:56:53.115Z,99.90
2023-04-12T14:59:22.432Z,99.90
2023-04-12T15:01:50.492Z,99.90
2023-04-12T15:04:23.216Z,99.90
2023-04-12T15:06:50.861Z,99.90
2023-04-12T15:09:18.451Z,99.90
2023-04-12T15:11:49.507Z,99.90
2023-04-12T15:14:20.747Z,99.90
2023-04-12T15:16:51.282Z,99.90
2023-04-12T15:19:23.336Z,99.90
2023-04-12T15:21:51.938Z,99.90
2023-04-12T15:24:20.915Z,99.90
2023-04-12T15:26:53.126Z,99.90
2023-04-12T15:29:22.924Z,99.90
2023-04-12T15:31:50.733Z,99.90
2023-04-12T15:34:18.498Z,99.90
2023-04-12T15:36:47.294Z,99.90
2023-04-12T15:39:15.285Z,99.90
2023-04-12T15:41:43.549Z,99.90
2023-04-12T15:44:14.695Z,99.90
2023-04-12T15:46:42.855Z,99.90
2023-04-12T15:49:14.194Z,99.90
2023-04-12T15:51:41.499Z,99.90
2023-04-12T15:54:09.058Z,99.90
2023-04-12T15:56:38.100Z,99.90
2023-04-12T15:59:06.290Z,99.90
2023-04-12T16:01:35.814Z,99.90
2023-04-12T16:04:05.416Z,99.90
2023-04-12T16:06:38.237Z,99.90
2023-04-12T16:09:05.949Z,99.90
2023-04-12T16:11:34.113Z,99.90
2023-04-12T16:14:02.196Z,99.90
2023-04-12T16:16:29.772Z,99.90
2023-04-12T16:18:57.578Z,99.90
2023-04-12T16:21:26.577Z,99.90
2023-04-12T16:23:54.523Z,99.90
2023-04-12T16:26:22.937Z,99.90
2023-04-12T16:28:53.787Z,99.90
2023-04-12T16:31:21.687Z,99.90
2023-04-12T16:33:49.993Z,99.90
2023-04-12T16:36:18.573Z,99.90
2023-04-12T16:38:46.862Z,99.90
2023-04-12T16:41:14.622Z,99.90
2023-04-12T16:43:44.782Z,99.90
2023-04-12T16:46:12.859Z,99.90
2023-04-12T16:48:41.773Z,99.90
2023-04-12T16:51:13.295Z,99.90
2023-04-12T16:53:41.465Z,99.90
2023-04-12T16:56:09.437Z,99.90
2023-04-12T16:58:39.297Z,99.90
2023-04-12T17:01:08.207Z,99.90
2023-04-12T17:03:36.663Z,99.90
2023-04-12T17:06:04.526Z,99.90
2023-04-12T17:08:32.955Z,99.90
2023-04-12T17:11:00.583Z,99.90
2023-04-12T17:13:30.384Z,99.90
2023-04-12T17:15:57.897Z,99.90
2023-04-12T17:18:26.147Z,99.90
2023-04-12T17:20:53.378Z,99.90
2023-04-12T17:23:23.596Z,99.90
2023-04-12T17:25:51.251Z,1.00
2023-04-12T17:28:19.601Z,1.00
2023-04-12T17:30:47.272Z,1.00
2023-04-12T17:33:18.289Z,1.00
2023-04-12T17:35:46.659Z,1.00
2023-04-12T17:38:14.550Z,1.00
2023-04-12T17:40:41.958Z,1.00
2023-04-12T17:43:11.897Z,1.00
2023-04-12T17:45:40.116Z,1.00
2023-04-12T17:48:11.830Z,1.00
2023-04-12T17:50:39.190Z,1.00
2023-04-12T17:53:06.799Z,1.00
2023-04-12T17:55:34.442Z,1.00
2023-04-12T17:58:02.239Z,1.00
2023-04-12T18:00:29.535Z,1.00
2023-04-12T18:02:57.834Z,1.00
2023-04-12T18:05:25.468Z,1.00
2023-04-12T18:07:53.340Z,1.00
2023-04-12T18:10:25.838Z,1.00
2023-04-12T18:12:54.089Z,20.70
2023-04-12T18:15:21.725Z,7.00
2023-04-12T18:17:50.362Z,60.30
2023-04-12T18:20:17.752Z,35.50
2023-04-12T18:22:46.034Z,88.20
2023-04-12T18:25:13.566Z,99.90
2023-04-12T18:27:41.494Z,84.70
2023-04-12T18:30:10.014Z,99.90
2023-04-12T18:32:37.749Z,99.90
2023-04-12T18:35:05.543Z,99.90
2023-04-12T18:37:33.743Z,99.90
2023-04-12T18:40:02.074Z,99.90
2023-04-12T18:42:29.676Z,99.90
2023-04-12T18:44:58.325Z,99.90
2023-04-12T18:47:27.594Z,99.90
2023-04-12T18:49:55.885Z,99.90
2023-04-12T18:52:23.901Z,1.00
2023-04-12T18:54:51.477Z,1.00
2023-04-12T18:57:19.472Z,3.00
2023-04-12T18:59:48.975Z,99.90
2023-04-12T19:02:18.392Z,99.90
2023-04-12T19:04:46.259Z,82.40
2023-04-12T19:07:16.387Z,42.30
2023-04-12T19:09:43.731Z,99.90
2023-04-12T19:12:11.707Z,1.00
2023-04-12T19:14:39.118Z,45.80
2023-04-12T19:17:06.718Z,99.90
2023-04-12T19:19:36.963Z,99.90
2023-04-12T19:22:05.226Z,99.90
2023-04-12T19:24:33.324Z,1.00
2023-04-12T19:27:01.439Z,99.90
2023-04-12T19:29:28.693Z,1.00
2023-04-12T19:32:00.439Z,99.90
2023-04-12T19:34:28.298Z,73.30
2023-04-12T19:36:56.835Z,99.90
2023-04-12T19:39:26.917Z,99.90
2023-04-12T19:41:54.573Z,18.10
2023-04-12T19:44:23.239Z,1.00
2023-04-12T19:46:52.190Z,37.10
2023-04-12T19:49:20.585Z,1.00
2023-04-12T19:51:50.098Z,99.90
2023-04-12T19:54:18.888Z,50.20
2023-04-12T19:56:46.516Z,99.90
2023-04-12T19:59:14.645Z,99.90
2023-04-12T20:01:48.629Z,99.90
2023-04-12T20:04:17.906Z,99.90
2023-04-12T20:06:45.611Z,99.90
2023-04-12T20:09:14.013Z,99.90
2023-04-12T20:11:42.278Z,1.00
2023-04-12T20:14:09.328Z,99.90
2023-04-12T20:16:38.124Z,99.90
2023-04-12T20:19:05.430Z,99.90
2023-04-12T20:21:34.258Z,1.00
2023-04-12T20:24:02.530Z,1.00
2023-04-12T20:26:33.989Z,99.90
2023-04-12T20:29:01.424Z,5.10
2023-04-12T20:31:29.326Z,98.10
2023-04-12T20:33:57.364Z,99.90
2023-04-12T20:36:26.400Z,99.90
2023-04-12T20:38:53.896Z,99.90
2023-04-12T20:41:21.360Z,99.90
2023-04-12T20:43:48.541Z,99.90
2023-04-12T20:46:18.997Z,99.90
2023-04-12T20:48:48.047Z,99.90
2023-04-12T20:51:16.021Z,99.90
2023-04-12T20:53:45.569Z,99.90
2023-04-12T20:56:13.141Z,99.90
2023-04-12T20:58:40.877Z,99.90
2023-04-12T21:01:14.525Z,99.90
2023-04-12T21:03:42.461Z,99.90
2023-04-12T21:06:13.163Z,99.90
2023-04-12T21:08:43.438Z,99.90
2023-04-12T21:11:10.706Z,99.90
2023-04-12T21:13:38.062Z,99.90
2023-04-12T21:16:08.090Z,99.90
2023-04-12T21:18:36.148Z,1.00
2023-04-12T21:21:03.874Z,1.00
2023-04-12T21:23:31.042Z,99.90
2023-04-12T21:25:59.107Z,99.90
2023-04-12T21:28:26.115Z,1.00
2023-04-12T21:30:55.237Z,1.00
2023-04-12T21:33:26.358Z,1.00
2023-04-12T21:35:54.923Z,1.00
2023-04-12T21:38:25.629Z,99.90
2023-04-12T21:40:57.261Z,99.90
2023-04-12T21:43:24.261Z,99.90
2023-04-12T21:45:51.761Z,1.00
2023-04-12T21:48:18.862Z,1.00
2023-04-12T21:50:46.227Z,1.00
2023-04-12T21:53:13.249Z,1.00
2023-04-12T21:55:40.746Z,1.00
2023-04-12T21:58:07.778Z,1.00
2023-04-12T22:00:35.141Z,1.00
2023-04-12T22:03:02.516Z,1.00
2023-04-12T22:05:31.164Z,1.00
2023-04-12T22:07:58.272Z,4.40
2023-04-12T22:10:25.747Z,1.90
2023-04-12T22:12:54.117Z,6.40
2023-04-12T22:15:21.574Z,14.70
2023-04-12T22:17:49.364Z,27.50
2023-04-12T22:20:16.888Z,35.70
2023-04-12T22:22:44.101Z,33.00
2023-04-12T22:25:14.812Z,47.20
2023-04-12T22:27:46.288Z,44.30
2023-04-12T22:30:14.383Z,43.70
2023-04-12T22:32:41.540Z,46.10
2023-04-12T22:35:10.097Z,43.10
2023-04-12T22:37:43.766Z,63.90
2023-04-12T22:40:12.450Z,80.70
2023-04-12T22:42:51.767Z,63.10
2023-04-12T22:45:19.158Z,54.10
2023-04-12T22:47:46.267Z,46.60
2023-04-12T22:50:13.873Z,41.90
2023-04-12T22:52:41.922Z,36.70
2023-04-12T22:55:14.401Z,40.10
2023-04-12T22:57:41.979Z,45.50
2023-04-12T23:00:15.770Z,53.70
2023-04-12T23:02:44.917Z,93.90
2023-04-12T23:05:12.712Z,99.90
2023-04-12T23:07:41.383Z,99.90
2023-04-12T23:10:10.790Z,99.90
2023-04-12T23:12:38.906Z,99.90
2023-04-12T23:15:09.441Z,99.90
2023-04-12T23:17:36.779Z,99.90
2023-04-12T23:20:09.854Z,99.90
2023-04-12T23:22:56.101Z,99.90
2023-04-12T23:25:38.041Z,99.90
2023-04-12T23:28:12.918Z,99.90
2023-04-12T23:30:51.230Z,99.90
2023-04-12T23:33:21.208Z,99.90
2023-04-12T23:35:52.236Z,99.90
2023-04-12T23:38:32.647Z,92.40
2023-04-12T23:41:02.453Z,70.10
2023-04-12T23:43:30.555Z,55.90
2023-04-12T23:45:57.976Z,51.80
2023-04-12T23:48:25.251Z,42.20
2023-04-12T23:50:54.275Z,29.90
2023-04-12T23:53:21.718Z,16.70
2023-04-12T23:55:56.106Z,3.80
2023-04-12T23:58:24.832Z,1.00
